createdAt,value
2018-10-05T00:01:14.086Z,12.46
2018-10-05T00:03:42.250Z,12.45
2018-10-05T00:06:10.413Z,12.45
2018-10-05T00:08:38.584Z,12.42
2018-10-05T00:11:06.876Z,12.43
2018-10-05T00:13:35.107Z,12.43
2018-10-05T00:16:03.256Z,12.43
2018-10-05T00:18:31.535Z,12.45
2018-10-05T00:20:59.704Z,12.47
2018-10-05T00:23:27.851Z,12.48
2018-10-05T00:25:56.008Z,12.50
2018-10-05T00:28:24.163Z,12.52
2018-10-05T00:30:52.315Z,12.52
2018-10-05T00:33:20.744Z,12.51
2018-10-05T00:35:48.903Z,12.55
2018-10-05T00:38:17.104Z,12.57
2018-10-05T00:40:45.275Z,12.58
2018-10-05T00:43:13.435Z,12.58
2018-10-05T00:45:41.655Z,12.58
2018-10-05T00:48:09.819Z,12.57
2018-10-05T00:50:38.010Z,12.56
2018-10-05T00:53:06.215Z,12.56
2018-10-05T00:55:34.339Z,12.54
2018-10-05T00:58:02.491Z,12.53
2018-10-05T01:00:30.668Z,12.52
2018-10-05T01:02:58.808Z,12.52
2018-10-05T01:05:26.964Z,12.51
2018-10-05T01:07:55.126Z,12.49
2018-10-05T01:10:23.365Z,12.46
2018-10-05T01:12:51.511Z,12.44
2018-10-05T01:15:19.717Z,12.42
2018-10-05T01:17:47.851Z,12.41
2018-10-05T01:20:16.042Z,12.42
2018-10-05T01:22:44.280Z,12.43
2018-10-05T01:25:12.463Z,12.42
2018-10-05T01:27:40.615Z,12.41
2018-10-05T01:30:12.462Z,12.38
2018-10-05T01:32:42.160Z,12.39
2018-10-05T01:35:10.355Z,12.37
2018-10-05T01:37:39.171Z,12.34
2018-10-05T01:40:07.280Z,12.33
2018-10-05T01:42:35.456Z,12.33
2018-10-05T01:45:03.653Z,12.33
2018-10-05T01:47:31.856Z,12.33
2018-10-05T01:49:59.992Z,12.33
2018-10-05T01:52:28.153Z,12.34
2018-10-05T01:54:56.341Z,12.33
2018-10-05T01:57:24.491Z,12.33
2018-10-05T01:59:52.696Z,12.34
2018-10-05T02:02:27.460Z,12.33
2018-10-05T02:04:55.604Z,12.31
2018-10-05T02:07:23.764Z,12.30
2018-10-05T02:09:51.910Z,12.30
2018-10-05T02:12:20.048Z,12.29
2018-10-05T02:14:48.195Z,12.29
2018-10-05T02:17:16.343Z,12.27
2018-10-05T02:19:44.535Z,12.23
2018-10-05T02:22:12.708Z,12.18
2018-10-05T02:24:40.859Z,12.13
2018-10-05T02:27:08.983Z,12.08
2018-10-05T02:29:37.240Z,12.05
2018-10-05T02:32:05.422Z,12.01
2018-10-05T02:34:33.594Z,11.98
2018-10-05T02:37:01.748Z,11.96
2018-10-05T02:39:29.891Z,11.91
2018-10-05T02:41:58.070Z,11.88
2018-10-05T02:44:26.228Z,11.87
2018-10-05T02:46:54.386Z,11.87
2018-10-05T02:49:22.537Z,11.86
2018-10-05T02:51:50.706Z,11.85
2018-10-05T02:54:18.843Z,11.85
2018-10-05T02:56:47.034Z,11.82
2018-10-05T02:59:15.197Z,11.81
2018-10-05T03:01:54.780Z,11.82
2018-10-05T03:04:22.935Z,11.82
2018-10-05T03:06:51.111Z,11.84
2018-10-05T03:09:19.246Z,11.85
2018-10-05T03:11:47.427Z,11.87
2018-10-05T03:14:15.595Z,11.89
2018-10-05T03:16:43.781Z,11.89
2018-10-05T03:19:11.976Z,11.92
2018-10-05T03:21:40.111Z,11.92
2018-10-05T03:24:08.267Z,11.90
2018-10-05T03:26:36.427Z,11.91
2018-10-05T03:29:04.579Z,11.89
2018-10-05T03:31:32.744Z,11.88
2018-10-05T03:34:00.884Z,11.86
2018-10-05T03:36:29.053Z,11.84
2018-10-05T03:38:57.275Z,11.84
2018-10-05T03:41:25.431Z,11.84
2018-10-05T03:43:53.595Z,11.85
2018-10-05T03:46:21.779Z,11.85
2018-10-05T03:48:50.015Z,11.85
2018-10-05T03:51:18.208Z,11.85
2018-10-05T03:53:46.435Z,11.87
2018-10-05T03:56:14.622Z,11.88
2018-10-05T03:58:47.922Z,11.87
2018-10-05T04:01:16.171Z,11.86
2018-10-05T04:03:44.363Z,11.88
2018-10-05T04:06:12.520Z,11.89
2018-10-05T04:08:40.659Z,11.88
2018-10-05T04:11:08.832Z,11.85
2018-10-05T04:13:37.088Z,11.84
2018-10-05T04:16:05.272Z,11.83
2018-10-05T04:18:33.452Z,11.82
2018-10-05T04:21:01.960Z,11.80
2018-10-05T04:23:30.117Z,11.78
2018-10-05T04:25:58.337Z,11.74
2018-10-05T04:28:26.491Z,11.73
2018-10-05T04:30:54.662Z,11.70
2018-10-05T04:33:22.839Z,11.66
2018-10-05T04:35:51.038Z,11.62
2018-10-05T04:38:19.234Z,11.61
2018-10-05T04:40:47.426Z,11.62
2018-10-05T04:43:15.572Z,11.60
2018-10-05T04:45:43.744Z,11.60
2018-10-05T04:48:11.934Z,11.60
2018-10-05T04:50:40.082Z,11.60
2018-10-05T04:53:08.284Z,11.61
2018-10-05T04:55:36.451Z,11.62
2018-10-05T04:58:04.674Z,11.60
2018-10-05T05:00:32.880Z,11.60
2018-10-05T05:03:01.079Z,11.60
2018-10-05T05:05:29.901Z,11.60
2018-10-05T05:07:58.063Z,11.59
2018-10-05T05:10:26.290Z,11.62
2018-10-05T05:12:54.525Z,11.64
2018-10-05T05:15:22.771Z,11.65
2018-10-05T05:17:51.041Z,11.64
2018-10-05T05:20:19.198Z,11.64
2018-10-05T05:22:47.368Z,11.65
2018-10-05T05:25:15.525Z,11.63
2018-10-05T05:27:43.726Z,11.63
2018-10-05T05:30:11.895Z,11.62
2018-10-05T05:32:40.064Z,11.65
2018-10-05T05:35:08.319Z,11.69
2018-10-05T05:37:36.527Z,11.70
2018-10-05T05:40:04.883Z,11.70
2018-10-05T05:42:33.011Z,11.71
2018-10-05T05:45:01.192Z,11.70
2018-10-05T05:47:29.378Z,11.72
2018-10-05T05:49:57.586Z,11.70
2018-10-05T05:52:25.768Z,11.70
2018-10-05T05:54:53.950Z,11.69
2018-10-05T05:57:22.154Z,11.69
2018-10-05T05:59:50.310Z,11.68
2018-10-05T06:02:18.527Z,11.68
2018-10-05T06:04:46.695Z,11.70
2018-10-05T06:07:14.889Z,11.69
2018-10-05T06:09:43.066Z,11.72
2018-10-05T06:12:11.316Z,11.74
2018-10-05T06:14:39.527Z,11.77
2018-10-05T06:17:07.752Z,11.80
2018-10-05T06:19:35.924Z,11.85
2018-10-05T06:22:04.125Z,11.89
2018-10-05T06:24:32.288Z,11.94
2018-10-05T06:27:00.496Z,11.98
2018-10-05T06:29:28.756Z,12.03
2018-10-05T06:31:56.920Z,12.05
2018-10-05T06:34:25.099Z,12.07
2018-10-05T06:36:53.323Z,12.10
2018-10-05T06:39:21.603Z,12.12
2018-10-05T06:41:49.785Z,12.16
2018-10-05T06:44:17.939Z,12.17
2018-10-05T06:46:46.147Z,12.20
2018-10-05T06:49:14.417Z,12.22
2018-10-05T06:51:42.603Z,12.25
2018-10-05T06:54:10.743Z,12.27
2018-10-05T06:56:39.041Z,12.29
2018-10-05T06:59:07.286Z,12.32
2018-10-05T07:01:35.620Z,12.35
2018-10-05T07:04:03.678Z,12.38
2018-10-05T07:06:31.847Z,12.40
2018-10-05T07:09:00.031Z,12.43
2018-10-05T07:11:28.286Z,12.45
2018-10-05T07:13:56.369Z,12.48
2018-10-05T07:16:24.597Z,12.51
2018-10-05T07:18:52.748Z,12.53
2018-10-05T07:21:20.950Z,12.57
2018-10-05T07:23:49.167Z,12.58
2018-10-05T07:26:17.383Z,12.61
2018-10-05T07:28:45.661Z,12.63
2018-10-05T07:31:13.727Z,12.69
2018-10-05T07:33:41.896Z,12.74
2018-10-05T07:36:10.135Z,12.75
2018-10-05T07:38:38.302Z,12.76
2018-10-05T07:41:06.790Z,12.80
2018-10-05T07:43:34.993Z,12.87
2018-10-05T07:46:03.236Z,12.91
2018-10-05T07:48:31.427Z,12.96
2018-10-05T07:50:59.675Z,13.03
2018-10-05T07:53:27.857Z,13.07
2018-10-05T07:55:57.010Z,13.13
2018-10-05T07:58:25.248Z,13.17
2018-10-05T08:00:53.444Z,13.20
2018-10-05T08:03:21.676Z,13.24
2018-10-05T08:05:49.911Z,13.30
2018-10-05T08:08:18.182Z,13.34
2018-10-05T08:10:47.336Z,13.36
2018-10-05T08:13:16.707Z,13.41
2018-10-05T08:15:44.962Z,13.46
2018-10-05T08:18:13.124Z,13.50
2018-10-05T08:20:41.363Z,13.55
2018-10-05T08:23:09.558Z,13.59
2018-10-05T08:25:37.759Z,13.62
2018-10-05T08:28:05.955Z,13.66
2018-10-05T08:30:34.200Z,13.68
2018-10-05T08:33:02.352Z,13.72
2018-10-05T08:35:30.509Z,13.77
2018-10-05T08:37:58.695Z,13.81
2018-10-05T08:40:26.886Z,13.85
2018-10-05T08:42:55.044Z,13.89
2018-10-05T08:45:23.244Z,13.92
2018-10-05T08:47:51.398Z,13.95
2018-10-05T08:50:19.551Z,13.98
2018-10-05T08:52:47.754Z,14.01
2018-10-05T08:55:15.934Z,14.05
2018-10-05T08:57:44.182Z,14.08
2018-10-05T09:00:12.456Z,14.13
2018-10-05T09:02:40.530Z,14.17
2018-10-05T09:05:08.946Z,14.19
2018-10-05T09:07:37.162Z,14.24
2018-10-05T09:10:05.441Z,14.30
2018-10-05T09:12:33.604Z,14.34
2018-10-05T09:15:01.818Z,14.38
2018-10-05T09:17:30.128Z,14.43
2018-10-05T09:19:58.372Z,14.49
2018-10-05T09:22:26.582Z,14.55
2018-10-05T09:24:55.146Z,14.63
2018-10-05T09:27:23.328Z,14.72
2018-10-05T09:29:51.656Z,14.83
2018-10-05T09:32:20.011Z,14.92
2018-10-05T09:34:48.218Z,15.02
2018-10-05T09:37:16.414Z,15.15
2018-10-05T09:39:44.587Z,15.32
2018-10-05T09:42:12.799Z,15.50
2018-10-05T09:44:41.111Z,15.68
2018-10-05T09:47:09.225Z,15.86
2018-10-05T09:49:37.443Z,16.04
2018-10-05T09:52:05.642Z,16.22
2018-10-05T09:54:33.912Z,16.38
2018-10-05T09:57:02.123Z,16.55
2018-10-05T09:59:30.316Z,16.70
2018-10-05T10:02:03.711Z,16.83
2018-10-05T10:04:31.979Z,16.99
2018-10-05T10:07:00.229Z,17.11
2018-10-05T10:09:28.424Z,17.26
2018-10-05T10:11:56.618Z,17.38
2018-10-05T10:14:24.815Z,17.47
2018-10-05T10:16:52.991Z,17.62
2018-10-05T10:19:21.179Z,17.72
2018-10-05T10:21:49.425Z,17.80
2018-10-05T10:24:17.532Z,17.90
2018-10-05T10:26:45.743Z,18.02
2018-10-05T10:29:14.029Z,18.15
2018-10-05T10:31:42.199Z,18.26
2018-10-05T10:34:10.376Z,18.36
2018-10-05T10:36:38.513Z,18.44
2018-10-05T10:39:07.814Z,18.54
2018-10-05T10:41:36.051Z,18.65
2018-10-05T10:44:04.270Z,18.78
2018-10-05T10:46:32.506Z,18.92
2018-10-05T10:49:00.721Z,19.00
2018-10-05T10:51:28.921Z,19.13
2018-10-05T10:53:57.136Z,19.26
2018-10-05T10:56:25.768Z,19.35
2018-10-05T10:58:53.924Z,19.47
2018-10-05T11:01:22.080Z,19.58
2018-10-05T11:03:50.276Z,19.69
2018-10-05T11:06:18.875Z,19.74
2018-10-05T11:08:47.087Z,19.85
2018-10-05T11:11:15.260Z,19.98
2018-10-05T11:13:43.462Z,20.12
2018-10-05T11:16:11.650Z,20.24
2018-10-05T11:18:39.838Z,20.35
2018-10-05T11:21:08.095Z,20.45
2018-10-05T11:23:36.288Z,20.54
2018-10-05T11:26:04.465Z,20.64
2018-10-05T11:28:32.696Z,20.73
2018-10-05T11:31:00.943Z,20.82
2018-10-05T11:33:29.274Z,20.89
2018-10-05T11:35:57.473Z,20.94
2018-10-05T11:38:25.695Z,21.02
2018-10-05T11:40:53.961Z,21.11
2018-10-05T11:43:22.130Z,21.19
2018-10-05T11:45:50.372Z,21.25
2018-10-05T11:48:18.597Z,21.34
2018-10-05T11:50:46.794Z,21.40
2018-10-05T11:53:14.994Z,21.37
2018-10-05T11:55:43.238Z,21.31
2018-10-05T11:58:11.455Z,21.19
2018-10-05T12:00:39.725Z,21.07
2018-10-05T12:03:07.898Z,21.01
2018-10-05T12:05:36.122Z,21.04
2018-10-05T12:08:04.387Z,21.06
2018-10-05T12:10:32.614Z,20.98
2018-10-05T12:13:01.148Z,20.84
2018-10-05T12:15:29.317Z,20.67
2018-10-05T12:17:57.495Z,20.56
2018-10-05T12:20:25.674Z,20.44
2018-10-05T12:22:53.957Z,20.39
2018-10-05T12:25:22.180Z,20.38
2018-10-05T12:27:50.355Z,20.49
2018-10-05T12:30:18.523Z,20.86
2018-10-05T12:32:46.723Z,21.23
2018-10-05T12:35:14.919Z,21.65
2018-10-05T12:37:43.141Z,22.19
2018-10-05T12:40:11.435Z,22.64
2018-10-05T12:42:39.652Z,23.14
2018-10-05T12:45:07.862Z,23.59
2018-10-05T12:47:36.107Z,23.85
2018-10-05T12:50:04.434Z,23.89
2018-10-05T12:52:32.604Z,23.80
2018-10-05T12:55:00.791Z,23.49
2018-10-05T12:57:29.104Z,23.17
2018-10-05T12:59:57.339Z,22.90
2018-10-05T13:02:25.513Z,22.79
2018-10-05T13:04:53.714Z,22.69
2018-10-05T13:07:21.929Z,22.63
2018-10-05T13:09:50.171Z,22.53
2018-10-05T13:12:18.400Z,22.31
2018-10-05T13:14:46.592Z,22.06
2018-10-05T13:17:14.759Z,21.74
2018-10-05T13:19:43.131Z,21.46
2018-10-05T13:22:11.354Z,21.21
2018-10-05T13:24:39.631Z,20.99
2018-10-05T13:27:07.834Z,20.84
2018-10-05T13:29:35.978Z,20.70
2018-10-05T13:32:04.127Z,20.58
2018-10-05T13:34:32.331Z,20.50
2018-10-05T13:37:00.611Z,20.48
2018-10-05T13:39:28.791Z,20.48
2018-10-05T13:41:57.064Z,20.44
2018-10-05T13:44:25.159Z,20.39
2018-10-05T13:46:53.407Z,20.38
2018-10-05T13:49:21.579Z,20.39
2018-10-05T13:51:49.763Z,20.39
2018-10-05T13:54:17.969Z,20.45
2018-10-05T13:56:46.208Z,20.44
2018-10-05T13:59:14.391Z,20.41
2018-10-05T14:01:43.974Z,20.38
2018-10-05T14:04:12.240Z,20.35
2018-10-05T14:06:40.455Z,20.35
2018-10-05T14:09:09.864Z,20.34
2018-10-05T14:11:38.136Z,20.33
2018-10-05T14:14:06.614Z,20.33
2018-10-05T14:16:34.955Z,20.31
2018-10-05T14:19:03.232Z,20.35
2018-10-05T14:21:31.751Z,20.45
2018-10-05T14:23:59.992Z,20.56
2018-10-05T14:26:28.163Z,20.65
2018-10-05T14:28:56.392Z,20.66
2018-10-05T14:31:24.614Z,20.67
2018-10-05T14:33:52.885Z,20.66
2018-10-05T14:36:21.186Z,20.65
2018-10-05T14:38:49.897Z,20.64
2018-10-05T14:41:18.095Z,20.63
2018-10-05T14:43:46.303Z,20.61
2018-10-05T14:46:14.539Z,20.57
2018-10-05T14:48:42.707Z,20.54
2018-10-05T14:51:10.884Z,20.49
2018-10-05T14:53:39.047Z,20.41
2018-10-05T14:56:07.232Z,20.32
2018-10-05T14:58:35.467Z,20.26
2018-10-05T15:01:03.705Z,20.19
2018-10-05T15:03:31.898Z,20.16
2018-10-05T15:06:00.103Z,20.14
2018-10-05T15:08:28.519Z,20.13
2018-10-05T15:10:56.686Z,20.11
2018-10-05T15:13:24.968Z,20.08
2018-10-05T15:15:53.206Z,20.07
2018-10-05T15:18:21.575Z,20.03
2018-10-05T15:20:49.771Z,20.01
2018-10-05T15:23:18.070Z,19.98
2018-10-05T15:25:46.306Z,19.95
2018-10-05T15:28:14.547Z,19.93
2018-10-05T15:30:42.714Z,19.89
2018-10-05T15:33:10.887Z,19.86
2018-10-05T15:35:39.061Z,19.84
2018-10-05T15:38:07.264Z,19.82
2018-10-05T15:40:35.459Z,19.80
2018-10-05T15:43:03.636Z,19.76
2018-10-05T15:45:31.818Z,19.74
2018-10-05T15:47:59.991Z,19.70
2018-10-05T15:50:28.183Z,19.65
2018-10-05T15:52:56.449Z,19.61
2018-10-05T15:55:24.607Z,19.57
2018-10-05T15:57:52.827Z,19.55
2018-10-05T16:00:21.043Z,19.52
2018-10-05T16:02:49.260Z,19.51
2018-10-05T16:05:17.497Z,19.47
2018-10-05T16:07:45.684Z,19.44
2018-10-05T16:10:13.843Z,19.39
2018-10-05T16:12:43.012Z,19.35
2018-10-05T16:15:11.207Z,19.34
2018-10-05T16:17:39.376Z,19.31
2018-10-05T16:20:07.639Z,19.28
2018-10-05T16:22:35.830Z,19.26
2018-10-05T16:25:04.086Z,19.23
2018-10-05T16:27:32.255Z,19.17
2018-10-05T16:30:00.439Z,19.10
2018-10-05T16:32:28.648Z,19.03
2018-10-05T16:34:56.863Z,18.97
2018-10-05T16:37:25.462Z,18.93
2018-10-05T16:39:53.600Z,18.89
2018-10-05T16:42:21.771Z,18.84
2018-10-05T16:44:49.964Z,18.78
2018-10-05T16:47:18.126Z,18.71
2018-10-05T16:49:46.383Z,18.64
2018-10-05T16:52:14.552Z,18.56
2018-10-05T16:54:42.737Z,18.47
2018-10-05T16:57:10.968Z,18.40
2018-10-05T16:59:39.168Z,18.35
2018-10-05T17:02:07.335Z,18.30
2018-10-05T17:04:35.503Z,18.25
2018-10-05T17:07:03.683Z,18.20
2018-10-05T17:09:32.271Z,18.17
2018-10-05T17:12:02.606Z,18.14
2018-10-05T17:14:31.011Z,18.11
2018-10-05T17:16:59.802Z,18.08
2018-10-05T17:19:28.010Z,18.07
2018-10-05T17:21:56.212Z,18.01
2018-10-05T17:24:24.392Z,17.98
2018-10-05T17:26:52.580Z,17.97
2018-10-05T17:29:20.834Z,17.96
2018-10-05T17:31:52.023Z,17.96
2018-10-05T17:34:20.242Z,17.95
2018-10-05T17:36:48.438Z,17.93
2018-10-05T17:39:16.608Z,17.91
2018-10-05T17:41:44.763Z,17.89
2018-10-05T17:44:12.923Z,17.86
2018-10-05T17:46:41.135Z,17.85
2018-10-05T17:49:09.299Z,17.81
2018-10-05T17:51:37.458Z,17.77
2018-10-05T17:54:05.745Z,17.72
2018-10-05T17:56:33.960Z,17.71
2018-10-05T17:59:03.250Z,17.71
2018-10-05T18:01:31.482Z,17.71
2018-10-05T18:03:59.751Z,17.72
2018-10-05T18:06:27.915Z,17.72
2018-10-05T18:08:56.166Z,17.74
2018-10-05T18:11:24.420Z,17.76
2018-10-05T18:13:52.602Z,17.76
2018-10-05T18:16:20.776Z,17.75
2018-10-05T18:18:48.955Z,17.74
2018-10-05T18:21:17.163Z,17.74
2018-10-05T18:23:45.343Z,17.72
2018-10-05T18:26:13.675Z,17.72
2018-10-05T18:28:41.715Z,17.72
2018-10-05T18:31:09.931Z,17.70
2018-10-05T18:33:38.185Z,17.69
2018-10-05T18:36:06.343Z,17.68
2018-10-05T18:38:34.519Z,17.67
2018-10-05T18:41:02.690Z,17.64
2018-10-05T18:43:30.870Z,17.61
2018-10-05T18:45:59.107Z,17.59
2018-10-05T18:48:27.291Z,17.57
2018-10-05T18:50:55.853Z,17.54
2018-10-05T18:53:24.194Z,17.52
2018-10-05T18:55:52.678Z,17.52
2018-10-05T18:58:21.026Z,17.51
2018-10-05T19:00:50.450Z,17.17
2018-10-05T19:03:18.694Z,17.46
2018-10-05T19:05:47.081Z,17.46
2018-10-05T19:08:16.228Z,17.44
2018-10-05T19:10:44.447Z,17.42
2018-10-05T19:13:12.776Z,17.41
2018-10-05T19:15:41.768Z,17.39
2018-10-05T19:18:10.677Z,17.35
2018-10-05T19:20:39.023Z,17.36
2018-10-05T19:23:07.468Z,17.33
2018-10-05T19:25:35.759Z,17.34
2018-10-05T19:28:03.992Z,17.31
2018-10-05T19:30:32.443Z,17.30
2018-10-05T19:33:00.787Z,17.31
2018-10-05T19:35:29.092Z,17.28
2018-10-05T19:37:57.333Z,17.27
2018-10-05T19:40:25.652Z,17.23
2018-10-05T19:42:53.947Z,17.18
2018-10-05T19:45:22.779Z,17.15
2018-10-05T19:47:51.626Z,17.14
2018-10-05T19:50:19.779Z,17.13
2018-10-05T19:52:48.365Z,17.12
2018-10-05T19:55:16.763Z,17.11
2018-10-05T19:57:44.994Z,17.07
2018-10-05T20:00:13.293Z,17.05
2018-10-05T20:02:41.530Z,17.03
2018-10-05T20:05:09.870Z,17.01
2018-10-05T20:07:38.402Z,16.96
2018-10-05T20:10:08.423Z,16.94
2018-10-05T20:12:36.589Z,16.88
2018-10-05T20:15:05.695Z,16.85
2018-10-05T20:17:34.655Z,16.79
2018-10-05T20:20:02.814Z,16.78
2018-10-05T20:22:30.978Z,16.75
2018-10-05T20:24:59.198Z,16.71
2018-10-05T20:27:27.472Z,16.69
2018-10-05T20:29:55.706Z,16.68
2018-10-05T20:32:23.932Z,16.67
2018-10-05T20:34:52.134Z,16.64
2018-10-05T20:37:20.421Z,16.63
2018-10-05T20:39:48.660Z,16.61
2018-10-05T20:42:16.939Z,16.59
2018-10-05T20:44:45.329Z,16.58
2018-10-05T20:47:13.542Z,16.57
2018-10-05T20:49:41.873Z,16.56
2018-10-05T20:52:10.129Z,16.54
2018-10-05T20:54:38.416Z,16.52
2018-10-05T20:57:07.451Z,16.48
2018-10-05T20:59:38.640Z,16.47
2018-10-05T21:02:06.835Z,16.44
2018-10-05T21:04:35.032Z,16.40
2018-10-05T21:07:03.243Z,16.39
2018-10-05T21:09:31.441Z,16.37
2018-10-05T21:11:59.608Z,16.36
2018-10-05T21:14:28.349Z,16.33
2018-10-05T21:16:56.523Z,16.30
2018-10-05T21:19:24.832Z,16.31
2018-10-05T21:21:53.008Z,16.30
2018-10-05T21:24:27.578Z,16.29
2018-10-05T21:26:55.758Z,16.26
2018-10-05T21:29:24.017Z,16.23
2018-10-05T21:31:52.201Z,16.20
2018-10-05T21:34:20.398Z,16.18
2018-10-05T21:36:48.563Z,16.17
2018-10-05T21:39:16.805Z,16.15
2018-10-05T21:41:45.028Z,16.14
2018-10-05T21:44:13.184Z,16.12
2018-10-05T21:46:41.340Z,16.09
2018-10-05T21:49:09.518Z,16.07
2018-10-05T21:51:37.707Z,16.04
2018-10-05T21:54:05.879Z,16.01
2018-10-05T21:56:34.028Z,15.98
2018-10-05T21:59:02.198Z,15.97
2018-10-05T22:01:30.346Z,15.96
2018-10-05T22:03:58.539Z,15.93
2018-10-05T22:06:26.702Z,15.88
2018-10-05T22:08:54.847Z,15.82
2018-10-05T22:11:23.048Z,15.82
2018-10-05T22:13:51.219Z,15.80
2018-10-05T22:16:19.415Z,15.78
2018-10-05T22:18:47.571Z,15.77
2018-10-05T22:21:15.755Z,15.77
2018-10-05T22:23:43.922Z,15.75
2018-10-05T22:26:12.103Z,15.71
2018-10-05T22:28:40.290Z,15.69
2018-10-05T22:31:08.486Z,15.65
2018-10-05T22:33:36.697Z,15.63
2018-10-05T22:36:04.874Z,15.61
2018-10-05T22:38:33.052Z,15.59
2018-10-05T22:41:01.213Z,15.56
2018-10-05T22:43:29.404Z,15.55
2018-10-05T22:45:57.539Z,15.55
2018-10-05T22:48:25.719Z,15.57
2018-10-05T22:50:53.868Z,15.55
2018-10-05T22:53:22.134Z,15.56
2018-10-05T22:55:50.322Z,15.56
2018-10-05T22:58:18.465Z,15.58
2018-10-05T23:00:46.640Z,15.58
2018-10-05T23:03:15.071Z,15.57
2018-10-05T23:05:43.246Z,15.58
2018-10-05T23:08:11.419Z,15.58
2018-10-05T23:10:39.584Z,15.58
2018-10-05T23:13:07.767Z,15.58
2018-10-05T23:15:35.979Z,15.56
2018-10-05T23:18:04.171Z,15.55
2018-10-05T23:20:32.367Z,15.53
2018-10-05T23:23:00.595Z,15.49
2018-10-05T23:25:28.744Z,15.47
2018-10-05T23:27:56.955Z,15.42
2018-10-05T23:30:25.119Z,15.38
2018-10-05T23:32:53.265Z,15.34
2018-10-05T23:35:21.414Z,15.30
2018-10-05T23:37:49.608Z,15.24
2018-10-05T23:40:17.762Z,15.20
2018-10-05T23:42:46.024Z,15.18
2018-10-05T23:45:14.223Z,15.17
2018-10-05T23:47:42.408Z,15.16
2018-10-05T23:50:10.610Z,15.16
2018-10-05T23:52:41.932Z,15.15
2018-10-05T23:55:10.157Z,15.13
2018-10-05T23:57:38.938Z,15.13
